sensor_id;sensor_type;location;lat;lon;timestamp;P1;durP1;ratioP1;P2;durP2;ratioP2
71312;SDS011;59104;44.738;20.612;2022-08-21T00:00:08;22.63;;;13.25;;
71312;SDS011;59104;44.738;20.612;2022-08-21T00:02:43;18.15;;;11.57;;
71312;SDS011;59104;44.738;20.612;2022-08-21T00:05:09;21.10;;;11.93;;
71312;SDS011;59104;44.738;20.612;2022-08-21T00:07:34;19.67;;;11.90;;
71312;SDS011;59104;44.738;20.612;2022-08-21T00:10:00;18.02;;;11.45;;
71312;SDS011;59104;44.738;20.612;2022-08-21T00:12:27;22.17;;;12.63;;
71312;SDS011;59104;44.738;20.612;2022-08-21T00:14:53;22.00;;;12.15;;
71312;SDS011;59104;44.738;20.612;2022-08-21T00:17:18;18.13;;;11.18;;
71312;SDS011;59104;44.738;20.612;2022-08-21T00:19:44;15.88;;;11.10;;
71312;SDS011;59104;44.738;20.612;2022-08-21T00:22:09;22.38;;;13.13;;
71312;SDS011;59104;44.738;20.612;2022-08-21T00:24:35;20.33;;;13.48;;
71312;SDS011;59104;44.738;20.612;2022-08-21T00:27:01;24.23;;;12.88;;
71312;SDS011;59104;44.738;20.612;2022-08-21T00:29:26;17.92;;;10.38;;
71312;SDS011;59104;44.738;20.612;2022-08-21T00:31:52;23.70;;;14.98;;
71312;SDS011;59104;44.738;20.612;2022-08-21T00:34:17;22.95;;;14.45;;
71312;SDS011;59104;44.738;20.612;2022-08-21T00:36:43;25.33;;;14.52;;
71312;SDS011;59104;44.738;20.612;2022-08-21T00:39:08;24.60;;;15.68;;
71312;SDS011;59104;44.738;20.612;2022-08-21T00:41:35;25.65;;;15.95;;
71312;SDS011;59104;44.738;20.612;2022-08-21T00:44:01;28.92;;;16.52;;
71312;SDS011;59104;44.738;20.612;2022-08-21T00:46:26;26.77;;;16.02;;
71312;SDS011;59104;44.738;20.612;2022-08-21T00:48:52;26.10;;;15.75;;
71312;SDS011;59104;44.738;20.612;2022-08-21T00:51:35;25.23;;;16.35;;
71312;SDS011;59104;44.738;20.612;2022-08-21T00:54:03;29.83;;;18.15;;
71312;SDS011;59104;44.738;20.612;2022-08-21T00:56:28;30.67;;;17.65;;
71312;SDS011;59104;44.738;20.612;2022-08-21T00:58:54;28.02;;;17.15;;
71312;SDS011;59104;44.738;20.612;2022-08-21T01:01:20;22.15;;;14.50;;
71312;SDS011;59104;44.738;20.612;2022-08-21T01:03:46;27.20;;;15.43;;
71312;SDS011;59104;44.738;20.612;2022-08-21T01:06:12;25.20;;;15.77;;
71312;SDS011;59104;44.738;20.612;2022-08-21T01:08:37;24.00;;;13.25;;
71312;SDS011;59104;44.738;20.612;2022-08-21T01:11:03;22.85;;;14.35;;
71312;SDS011;59104;44.738;20.612;2022-08-21T01:13:30;24.30;;;12.88;;
71312;SDS011;59104;44.738;20.612;2022-08-21T01:15:56;21.25;;;12.73;;
71312;SDS011;59104;44.738;20.612;2022-08-21T01:18:24;18.80;;;10.88;;
71312;SDS011;59104;44.738;20.612;2022-08-21T01:21:03;26.55;;;10.30;;
71312;SDS011;59104;44.738;20.612;2022-08-21T01:23:29;12.80;;;8.60;;
71312;SDS011;59104;44.738;20.612;2022-08-21T01:25:55;10.90;;;7.32;;
71312;SDS011;59104;44.738;20.612;2022-08-21T01:28:21;10.63;;;5.70;;
71312;SDS011;59104;44.738;20.612;2022-08-21T01:30:47;6.13;;;4.25;;
71312;SDS011;59104;44.738;20.612;2022-08-21T01:33:13;4.00;;;2.70;;
71312;SDS011;59104;44.738;20.612;2022-08-21T01:35:39;3.15;;;2.67;;
71312;SDS011;59104;44.738;20.612;2022-08-21T01:38:04;3.60;;;2.33;;
71312;SDS011;59104;44.738;20.612;2022-08-21T01:40:30;3.78;;;2.72;;
71312;SDS011;59104;44.738;20.612;2022-08-21T01:42:55;3.45;;;2.20;;
71312;SDS011;59104;44.738;20.612;2022-08-21T01:45:21;2.65;;;1.77;;
71312;SDS011;59104;44.738;20.612;2022-08-21T01:47:46;3.45;;;2.05;;
71312;SDS011;59104;44.738;20.612;2022-08-21T01:50:12;2.13;;;1.60;;
71312;SDS011;59104;44.738;20.612;2022-08-21T01:52:38;2.15;;;1.50;;
71312;SDS011;59104;44.738;20.612;2022-08-21T01:55:04;2.13;;;1.90;;
71312;SDS011;59104;44.738;20.612;2022-08-21T01:57:30;2.30;;;1.65;;
71312;SDS011;59104;44.738;20.612;2022-08-21T01:59:56;2.08;;;1.63;;
71312;SDS011;59104;44.738;20.612;2022-08-21T02:02:21;3.00;;;1.30;;
71312;SDS011;59104;44.738;20.612;2022-08-21T02:04:47;1.17;;;1.08;;
71312;SDS011;59104;44.738;20.612;2022-08-21T02:07:12;1.85;;;1.50;;
71312;SDS011;59104;44.738;20.612;2022-08-21T02:09:37;2.70;;;1.88;;
71312;SDS011;59104;44.738;20.612;2022-08-21T02:12:03;3.28;;;1.35;;
71312;SDS011;59104;44.738;20.612;2022-08-21T02:14:28;2.15;;;1.50;;
71312;SDS011;59104;44.738;20.612;2022-08-21T02:16:54;2.22;;;1.50;;
71312;SDS011;59104;44.738;20.612;2022-08-21T02:19:19;2.50;;;1.83;;
71312;SDS011;59104;44.738;20.612;2022-08-21T02:21:45;2.83;;;2.08;;
71312;SDS011;59104;44.738;20.612;2022-08-21T02:24:11;2.42;;;2.00;;
71312;SDS011;59104;44.738;20.612;2022-08-21T02:26:37;2.50;;;2.03;;
71312;SDS011;59104;44.738;20.612;2022-08-21T02:29:03;2.60;;;1.77;;
71312;SDS011;59104;44.738;20.612;2022-08-21T02:31:29;3.35;;;2.28;;
71312;SDS011;59104;44.738;20.612;2022-08-21T02:33:54;5.22;;;2.10;;
71312;SDS011;59104;44.738;20.612;2022-08-21T02:36:20;1.88;;;1.60;;
71312;SDS011;59104;44.738;20.612;2022-08-21T02:38:46;2.78;;;2.00;;
71312;SDS011;59104;44.738;20.612;2022-08-21T02:41:13;2.20;;;1.83;;
71312;SDS011;59104;44.738;20.612;2022-08-21T02:43:39;2.90;;;1.80;;
71312;SDS011;59104;44.738;20.612;2022-08-21T02:46:05;3.45;;;2.47;;
71312;SDS011;59104;44.738;20.612;2022-08-21T02:48:32;2.75;;;2.10;;
71312;SDS011;59104;44.738;20.612;2022-08-21T02:51:05;2.17;;;1.67;;
71312;SDS011;59104;44.738;20.612;2022-08-21T02:53:31;2.42;;;1.83;;
71312;SDS011;59104;44.738;20.612;2022-08-21T02:55:58;2.53;;;1.88;;
71312;SDS011;59104;44.738;20.612;2022-08-21T02:58:25;4.80;;;2.33;;
71312;SDS011;59104;44.738;20.612;2022-08-21T03:00:52;3.15;;;2.28;;
71312;SDS011;59104;44.738;20.612;2022-08-21T03:03:18;2.75;;;1.92;;
71312;SDS011;59104;44.738;20.612;2022-08-21T03:05:46;3.05;;;1.95;;
71312;SDS011;59104;44.738;20.612;2022-08-21T03:08:12;4.32;;;2.53;;
71312;SDS011;59104;44.738;20.612;2022-08-21T03:10:39;3.60;;;2.53;;
71312;SDS011;59104;44.738;20.612;2022-08-21T03:13:05;4.28;;;2.90;;
71312;SDS011;59104;44.738;20.612;2022-08-21T03:15:31;3.67;;;2.85;;
71312;SDS011;59104;44.738;20.612;2022-08-21T03:17:57;4.60;;;2.50;;
71312;SDS011;59104;44.738;20.612;2022-08-21T03:20:24;4.85;;;2.60;;
71312;SDS011;59104;44.738;20.612;2022-08-21T03:22:51;4.35;;;2.65;;
71312;SDS011;59104;44.738;20.612;2022-08-21T03:25:16;4.03;;;2.83;;
71312;SDS011;59104;44.738;20.612;2022-08-21T03:27:42;4.57;;;2.80;;
71312;SDS011;59104;44.738;20.612;2022-08-21T03:30:09;4.25;;;2.55;;
71312;SDS011;59104;44.738;20.612;2022-08-21T03:32:35;4.30;;;2.42;;
71312;SDS011;59104;44.738;20.612;2022-08-21T03:35:01;3.22;;;2.20;;
71312;SDS011;59104;44.738;20.612;2022-08-21T03:37:27;3.50;;;2.40;;
71312;SDS011;59104;44.738;20.612;2022-08-21T03:39:53;2.75;;;2.10;;
71312;SDS011;59104;44.738;20.612;2022-08-21T03:42:18;5.50;;;2.15;;
71312;SDS011;59104;44.738;20.612;2022-08-21T03:44:44;2.85;;;2.17;;
71312;SDS011;59104;44.738;20.612;2022-08-21T03:47:09;2.92;;;2.30;;
71312;SDS011;59104;44.738;20.612;2022-08-21T03:49:35;5.28;;;2.88;;
71312;SDS011;59104;44.738;20.612;2022-08-21T03:52:01;4.10;;;2.90;;
71312;SDS011;59104;44.738;20.612;2022-08-21T03:54:27;4.60;;;3.35;;
71312;SDS011;59104;44.738;20.612;2022-08-21T03:56:52;4.38;;;3.05;;
71312;SDS011;59104;44.738;20.612;2022-08-21T03:59:18;4.22;;;3.35;;
71312;SDS011;59104;44.738;20.612;2022-08-21T04:04:18;5.25;;;3.72;;
71312;SDS011;59104;44.738;20.612;2022-08-21T04:06:43;5.10;;;3.38;;
71312;SDS011;59104;44.738;20.612;2022-08-21T04:09:09;3.92;;;2.72;;
71312;SDS011;59104;44.738;20.612;2022-08-21T04:11:34;5.05;;;4.10;;
71312;SDS011;59104;44.738;20.612;2022-08-21T04:14:00;4.50;;;3.35;;
71312;SDS011;59104;44.738;20.612;2022-08-21T04:16:25;5.68;;;3.67;;
71312;SDS011;59104;44.738;20.612;2022-08-21T04:18:51;4.90;;;3.53;;
71312;SDS011;59104;44.738;20.612;2022-08-21T04:21:16;4.10;;;3.20;;
71312;SDS011;59104;44.738;20.612;2022-08-21T04:23:42;5.07;;;3.47;;
71312;SDS011;59104;44.738;20.612;2022-08-21T04:26:07;4.53;;;3.22;;
71312;SDS011;59104;44.738;20.612;2022-08-21T04:28:33;5.68;;;3.42;;
71312;SDS011;59104;44.738;20.612;2022-08-21T04:30:58;5.25;;;3.78;;
71312;SDS011;59104;44.738;20.612;2022-08-21T04:33:24;4.63;;;3.45;;
71312;SDS011;59104;44.738;20.612;2022-08-21T04:35:49;8.93;;;5.45;;
71312;SDS011;59104;44.738;20.612;2022-08-21T04:38:15;5.53;;;4.32;;
71312;SDS011;59104;44.738;20.612;2022-08-21T04:40:41;5.22;;;3.97;;
71312;SDS011;59104;44.738;20.612;2022-08-21T04:43:08;7.70;;;4.70;;
71312;SDS011;59104;44.738;20.612;2022-08-21T04:45:38;6.88;;;4.45;;
71312;SDS011;59104;44.738;20.612;2022-08-21T04:48:05;7.50;;;4.65;;
71312;SDS011;59104;44.738;20.612;2022-08-21T04:50:54;6.95;;;4.70;;
71312;SDS011;59104;44.738;20.612;2022-08-21T04:55:48;6.80;;;4.70;;
71312;SDS011;59104;44.738;20.612;2022-08-21T04:58:15;8.82;;;6.35;;
71312;SDS011;59104;44.738;20.612;2022-08-21T05:00:42;8.50;;;5.30;;
71312;SDS011;59104;44.738;20.612;2022-08-21T05:03:08;9.68;;;5.57;;
71312;SDS011;59104;44.738;20.612;2022-08-21T05:05:34;9.75;;;6.32;;
71312;SDS011;59104;44.738;20.612;2022-08-21T05:08:00;12.20;;;7.22;;
71312;SDS011;59104;44.738;20.612;2022-08-21T05:10:26;6.95;;;5.10;;
71312;SDS011;59104;44.738;20.612;2022-08-21T05:12:52;9.40;;;6.40;;
71312;SDS011;59104;44.738;20.612;2022-08-21T05:15:18;10.13;;;6.55;;
71312;SDS011;59104;44.738;20.612;2022-08-21T05:17:44;10.60;;;6.68;;
71312;SDS011;59104;44.738;20.612;2022-08-21T05:20:10;11.77;;;6.93;;
71312;SDS011;59104;44.738;20.612;2022-08-21T05:22:36;11.50;;;7.03;;
71312;SDS011;59104;44.738;20.612;2022-08-21T05:25:02;10.45;;;6.22;;
71312;SDS011;59104;44.738;20.612;2022-08-21T05:27:27;9.10;;;6.28;;
71312;SDS011;59104;44.738;20.612;2022-08-21T05:29:55;11.45;;;6.65;;
71312;SDS011;59104;44.738;20.612;2022-08-21T05:32:21;11.27;;;6.53;;
71312;SDS011;59104;44.738;20.612;2022-08-21T05:34:46;9.88;;;7.10;;
71312;SDS011;59104;44.738;20.612;2022-08-21T05:37:12;10.55;;;6.60;;
71312;SDS011;59104;44.738;20.612;2022-08-21T05:39:37;9.45;;;6.10;;
71312;SDS011;59104;44.738;20.612;2022-08-21T05:42:03;9.73;;;6.32;;
71312;SDS011;59104;44.738;20.612;2022-08-21T05:44:28;10.15;;;5.78;;
71312;SDS011;59104;44.738;20.612;2022-08-21T05:46:54;8.80;;;5.93;;
71312;SDS011;59104;44.738;20.612;2022-08-21T05:49:19;7.40;;;4.80;;
71312;SDS011;59104;44.738;20.612;2022-08-21T05:51:45;8.15;;;5.47;;
71312;SDS011;59104;44.738;20.612;2022-08-21T05:54:10;11.45;;;6.20;;
71312;SDS011;59104;44.738;20.612;2022-08-21T05:56:36;7.68;;;5.38;;
71312;SDS011;59104;44.738;20.612;2022-08-21T05:59:02;10.40;;;6.95;;
71312;SDS011;59104;44.738;20.612;2022-08-21T06:01:27;9.23;;;6.00;;
71312;SDS011;59104;44.738;20.612;2022-08-21T06:03:54;8.98;;;6.13;;
71312;SDS011;59104;44.738;20.612;2022-08-21T06:06:19;7.13;;;5.20;;
71312;SDS011;59104;44.738;20.612;2022-08-21T06:08:45;7.38;;;4.75;;
71312;SDS011;59104;44.738;20.612;2022-08-21T06:11:10;11.10;;;6.53;;
71312;SDS011;59104;44.738;20.612;2022-08-21T06:13:36;9.38;;;5.82;;
71312;SDS011;59104;44.738;20.612;2022-08-21T06:16:12;10.60;;;5.50;;
71312;SDS011;59104;44.738;20.612;2022-08-21T06:18:38;7.53;;;5.18;;
71312;SDS011;59104;44.738;20.612;2022-08-21T06:21:04;10.50;;;5.20;;
71312;SDS011;59104;44.738;20.612;2022-08-21T06:23:30;7.25;;;4.40;;
71312;SDS011;59104;44.738;20.612;2022-08-21T06:25:56;9.05;;;5.47;;
71312;SDS011;59104;44.738;20.612;2022-08-21T06:28:21;7.10;;;4.57;;
71312;SDS011;59104;44.738;20.612;2022-08-21T06:30:46;8.25;;;5.75;;
71312;SDS011;59104;44.738;20.612;2022-08-21T06:33:12;12.63;;;5.65;;
71312;SDS011;59104;44.738;20.612;2022-08-21T06:35:37;8.75;;;5.18;;
71312;SDS011;59104;44.738;20.612;2022-08-21T06:38:03;7.30;;;4.35;;
71312;SDS011;59104;44.738;20.612;2022-08-21T06:40:29;8.25;;;5.50;;
71312;SDS011;59104;44.738;20.612;2022-08-21T06:42:54;10.05;;;6.75;;
71312;SDS011;59104;44.738;20.612;2022-08-21T06:45:20;8.27;;;5.88;;
71312;SDS011;59104;44.738;20.612;2022-08-21T06:47:46;10.65;;;6.90;;
71312;SDS011;59104;44.738;20.612;2022-08-21T06:50:11;10.75;;;5.97;;
71312;SDS011;59104;44.738;20.612;2022-08-21T06:52:37;7.97;;;5.80;;
71312;SDS011;59104;44.738;20.612;2022-08-21T06:55:07;9.75;;;5.13;;
71312;SDS011;59104;44.738;20.612;2022-08-21T06:57:33;7.55;;;4.38;;
71312;SDS011;59104;44.738;20.612;2022-08-21T06:59:58;8.30;;;5.50;;
71312;SDS011;59104;44.738;20.612;2022-08-21T07:02:24;6.40;;;4.55;;
71312;SDS011;59104;44.738;20.612;2022-08-21T07:04:49;10.35;;;5.40;;
71312;SDS011;59104;44.738;20.612;2022-08-21T07:07:16;8.73;;;4.82;;
71312;SDS011;59104;44.738;20.612;2022-08-21T07:09:41;11.02;;;4.57;;
71312;SDS011;59104;44.738;20.612;2022-08-21T07:12:07;7.00;;;4.82;;
71312;SDS011;59104;44.738;20.612;2022-08-21T07:14:32;8.13;;;4.80;;
71312;SDS011;59104;44.738;20.612;2022-08-21T07:16:58;8.52;;;5.45;;
71312;SDS011;59104;44.738;20.612;2022-08-21T07:19:24;9.07;;;5.80;;
71312;SDS011;59104;44.738;20.612;2022-08-21T07:21:49;6.93;;;5.30;;
71312;SDS011;59104;44.738;20.612;2022-08-21T07:24:15;9.85;;;6.45;;
71312;SDS011;59104;44.738;20.612;2022-08-21T07:26:40;11.93;;;7.60;;
71312;SDS011;59104;44.738;20.612;2022-08-21T07:29:06;12.40;;;7.93;;
71312;SDS011;59104;44.738;20.612;2022-08-21T07:31:32;13.15;;;8.05;;
71312;SDS011;59104;44.738;20.612;2022-08-21T07:33:57;15.05;;;8.07;;
71312;SDS011;59104;44.738;20.612;2022-08-21T07:36:23;11.52;;;7.68;;
71312;SDS011;59104;44.738;20.612;2022-08-21T07:38:48;11.98;;;6.72;;
71312;SDS011;59104;44.738;20.612;2022-08-21T07:41:32;13.55;;;7.05;;
71312;SDS011;59104;44.738;20.612;2022-08-21T07:43:59;12.50;;;7.20;;
71312;SDS011;59104;44.738;20.612;2022-08-21T07:46:25;10.13;;;6.75;;
71312;SDS011;59104;44.738;20.612;2022-08-21T07:48:51;11.25;;;6.43;;
71312;SDS011;59104;44.738;20.612;2022-08-21T07:51:17;9.50;;;6.50;;
71312;SDS011;59104;44.738;20.612;2022-08-21T07:53:47;8.57;;;5.30;;
71312;SDS011;59104;44.738;20.612;2022-08-21T07:56:13;12.85;;;7.22;;
71312;SDS011;59104;44.738;20.612;2022-08-21T07:58:38;11.35;;;6.82;;
71312;SDS011;59104;44.738;20.612;2022-08-21T08:01:04;12.07;;;6.60;;
71312;SDS011;59104;44.738;20.612;2022-08-21T08:03:30;12.77;;;6.95;;
71312;SDS011;59104;44.738;20.612;2022-08-21T08:05:56;8.82;;;5.55;;
71312;SDS011;59104;44.738;20.612;2022-08-21T08:08:21;11.63;;;5.82;;
71312;SDS011;59104;44.738;20.612;2022-08-21T08:10:47;10.70;;;6.30;;
71312;SDS011;59104;44.738;20.612;2022-08-21T08:13:15;7.70;;;5.28;;
71312;SDS011;59104;44.738;20.612;2022-08-21T08:15:40;9.25;;;5.00;;
71312;SDS011;59104;44.738;20.612;2022-08-21T08:18:06;6.78;;;4.97;;
71312;SDS011;59104;44.738;20.612;2022-08-21T08:20:31;8.38;;;5.20;;
71312;SDS011;59104;44.738;20.612;2022-08-21T08:22:56;8.55;;;4.85;;
71312;SDS011;59104;44.738;20.612;2022-08-21T08:25:23;10.32;;;5.25;;
71312;SDS011;59104;44.738;20.612;2022-08-21T08:27:49;10.15;;;4.80;;
71312;SDS011;59104;44.738;20.612;2022-08-21T08:30:15;5.63;;;4.20;;
71312;SDS011;59104;44.738;20.612;2022-08-21T08:32:42;6.35;;;4.45;;
71312;SDS011;59104;44.738;20.612;2022-08-21T08:35:08;16.00;;;4.68;;
71312;SDS011;59104;44.738;20.612;2022-08-21T08:37:34;8.57;;;4.75;;
71312;SDS011;59104;44.738;20.612;2022-08-21T08:40:02;7.97;;;5.10;;
71312;SDS011;59104;44.738;20.612;2022-08-21T08:42:29;7.20;;;4.70;;
71312;SDS011;59104;44.738;20.612;2022-08-21T08:44:56;7.50;;;4.47;;
71312;SDS011;59104;44.738;20.612;2022-08-21T08:47:22;9.43;;;4.80;;
71312;SDS011;59104;44.738;20.612;2022-08-21T08:49:53;9.13;;;6.13;;
71312;SDS011;59104;44.738;20.612;2022-08-21T08:54:47;6.95;;;4.22;;
71312;SDS011;59104;44.738;20.612;2022-08-21T08:57:19;8.10;;;4.97;;
71312;SDS011;59104;44.738;20.612;2022-08-21T08:59:45;10.70;;;5.07;;
71312;SDS011;59104;44.738;20.612;2022-08-21T09:02:13;8.48;;;5.65;;
71312;SDS011;59104;44.738;20.612;2022-08-21T09:04:39;8.85;;;5.13;;
71312;SDS011;59104;44.738;20.612;2022-08-21T09:09:53;8.27;;;5.07;;
71312;SDS011;59104;44.738;20.612;2022-08-21T09:25:03;10.93;;;7.15;;
71312;SDS011;59104;44.738;20.612;2022-08-21T09:27:33;9.82;;;6.43;;
71312;SDS011;59104;44.738;20.612;2022-08-21T09:29:58;10.85;;;7.22;;
71312;SDS011;59104;44.738;20.612;2022-08-21T09:32:25;11.45;;;7.22;;
71312;SDS011;59104;44.738;20.612;2022-08-21T09:34:55;11.18;;;6.95;;
71312;SDS011;59104;44.738;20.612;2022-08-21T09:37:21;11.10;;;5.97;;
71312;SDS011;59104;44.738;20.612;2022-08-21T09:39:47;11.98;;;7.20;;
71312;SDS011;59104;44.738;20.612;2022-08-21T09:42:20;12.48;;;7.35;;
71312;SDS011;59104;44.738;20.612;2022-08-21T09:44:46;12.30;;;7.25;;
71312;SDS011;59104;44.738;20.612;2022-08-21T09:47:12;10.30;;;6.47;;
71312;SDS011;59104;44.738;20.612;2022-08-21T09:49:39;10.25;;;5.95;;
71312;SDS011;59104;44.738;20.612;2022-08-21T09:52:06;11.88;;;6.75;;
71312;SDS011;59104;44.738;20.612;2022-08-21T09:54:40;11.25;;;7.68;;
71312;SDS011;59104;44.738;20.612;2022-08-21T09:59:53;15.35;;;8.98;;
71312;SDS011;59104;44.738;20.612;2022-08-21T10:04:51;11.25;;;6.88;;
71312;SDS011;59104;44.738;20.612;2022-08-21T10:07:19;12.23;;;6.93;;
71312;SDS011;59104;44.738;20.612;2022-08-21T10:09:44;9.68;;;6.30;;
71312;SDS011;59104;44.738;20.612;2022-08-21T10:12:13;10.15;;;5.88;;
71312;SDS011;59104;44.738;20.612;2022-08-21T10:17:22;8.30;;;4.72;;
71312;SDS011;59104;44.738;20.612;2022-08-21T10:27:58;8.75;;;5.95;;
71312;SDS011;59104;44.738;20.612;2022-08-21T10:41:14;5.75;;;4.05;;
71312;SDS011;59104;44.738;20.612;2022-08-21T10:49:06;2.50;;;2.30;;
71312;SDS011;59104;44.738;20.612;2022-08-21T10:56:30;3.70;;;2.38;;
71312;SDS011;59104;44.738;20.612;2022-08-21T11:01:26;3.30;;;2.60;;
71312;SDS011;59104;44.738;20.612;2022-08-21T11:04:29;3.40;;;2.03;;
71312;SDS011;59104;44.738;20.612;2022-08-21T11:06:49;4.38;;;2.28;;
71312;SDS011;59104;44.738;20.612;2022-08-21T11:09:18;3.53;;;2.45;;
71312;SDS011;59104;44.738;20.612;2022-08-21T11:11:46;4.50;;;2.88;;
71312;SDS011;59104;44.738;20.612;2022-08-21T11:14:20;3.25;;;2.42;;
71312;SDS011;59104;44.738;20.612;2022-08-21T11:17:02;4.15;;;2.58;;
71312;SDS011;59104;44.738;20.612;2022-08-21T11:19:33;5.30;;;3.20;;
71312;SDS011;59104;44.738;20.612;2022-08-21T11:22:19;4.57;;;3.20;;
71312;SDS011;59104;44.738;20.612;2022-08-21T11:24:55;9.73;;;4.82;;
71312;SDS011;59104;44.738;20.612;2022-08-21T11:27:24;6.95;;;4.07;;
71312;SDS011;59104;44.738;20.612;2022-08-21T11:29:55;8.35;;;4.63;;
71312;SDS011;59104;44.738;20.612;2022-08-21T11:35:10;6.10;;;3.30;;
71312;SDS011;59104;44.738;20.612;2022-08-21T11:38:13;4.50;;;2.38;;
71312;SDS011;59104;44.738;20.612;2022-08-21T11:43:07;3.25;;;1.33;;
71312;SDS011;59104;44.738;20.612;2022-08-21T11:45:50;2.78;;;1.38;;
71312;SDS011;59104;44.738;20.612;2022-08-21T11:48:33;2.90;;;1.08;;
71312;SDS011;59104;44.738;20.612;2022-08-21T11:51:03;3.40;;;1.80;;
71312;SDS011;59104;44.738;20.612;2022-08-21T11:53:32;4.70;;;2.63;;
71312;SDS011;59104;44.738;20.612;2022-08-21T11:56:08;3.80;;;2.45;;
71312;SDS011;59104;44.738;20.612;2022-08-21T11:58:45;3.58;;;2.53;;
71312;SDS011;59104;44.738;20.612;2022-08-21T12:01:15;5.13;;;1.98;;
71312;SDS011;59104;44.738;20.612;2022-08-21T12:03:55;4.55;;;2.65;;
71312;SDS011;59104;44.738;20.612;2022-08-21T12:06:31;2.85;;;2.40;;
71312;SDS011;59104;44.738;20.612;2022-08-21T12:09:03;5.43;;;3.20;;
71312;SDS011;59104;44.738;20.612;2022-08-21T12:11:29;7.18;;;3.90;;
71312;SDS011;59104;44.738;20.612;2022-08-21T12:16:46;7.15;;;4.45;;
71312;SDS011;59104;44.738;20.612;2022-08-21T12:19:13;6.43;;;3.83;;
71312;SDS011;59104;44.738;20.612;2022-08-21T12:24:32;7.40;;;4.20;;
71312;SDS011;59104;44.738;20.612;2022-08-21T12:27:13;7.07;;;4.55;;
71312;SDS011;59104;44.738;20.612;2022-08-21T12:29:39;10.63;;;5.18;;
71312;SDS011;59104;44.738;20.612;2022-08-21T12:34:38;12.23;;;5.90;;
71312;SDS011;59104;44.738;20.612;2022-08-21T12:37:15;10.02;;;5.60;;
71312;SDS011;59104;44.738;20.612;2022-08-21T12:39:43;8.30;;;6.00;;
71312;SDS011;59104;44.738;20.612;2022-08-21T12:42:39;8.82;;;5.95;;
71312;SDS011;59104;44.738;20.612;2022-08-21T12:45:23;13.10;;;5.75;;
71312;SDS011;59104;44.738;20.612;2022-08-21T12:47:59;12.23;;;7.53;;
71312;SDS011;59104;44.738;20.612;2022-08-21T12:52:58;10.57;;;5.55;;
71312;SDS011;59104;44.738;20.612;2022-08-21T12:55:26;10.93;;;6.30;;
71312;SDS011;59104;44.738;20.612;2022-08-21T12:57:52;12.30;;;7.47;;
71312;SDS011;59104;44.738;20.612;2022-08-21T13:00:19;13.80;;;8.30;;
71312;SDS011;59104;44.738;20.612;2022-08-21T13:02:46;15.13;;;8.68;;
71312;SDS011;59104;44.738;20.612;2022-08-21T13:05:14;13.75;;;8.27;;
71312;SDS011;59104;44.738;20.612;2022-08-21T13:07:42;10.75;;;7.93;;
71312;SDS011;59104;44.738;20.612;2022-08-21T13:10:20;13.80;;;8.27;;
71312;SDS011;59104;44.738;20.612;2022-08-21T13:12:47;9.43;;;5.93;;
71312;SDS011;59104;44.738;20.612;2022-08-21T13:15:12;10.23;;;6.50;;
71312;SDS011;59104;44.738;20.612;2022-08-21T13:17:40;8.73;;;5.45;;
71312;SDS011;59104;44.738;20.612;2022-08-21T13:20:18;11.52;;;5.38;;
71312;SDS011;59104;44.738;20.612;2022-08-21T13:22:44;8.63;;;5.55;;
71312;SDS011;59104;44.738;20.612;2022-08-21T13:25:10;7.07;;;4.70;;
71312;SDS011;59104;44.738;20.612;2022-08-21T13:27:36;8.65;;;5.28;;
71312;SDS011;59104;44.738;20.612;2022-08-21T13:30:18;8.85;;;5.10;;
71312;SDS011;59104;44.738;20.612;2022-08-21T13:32:46;6.82;;;4.88;;
71312;SDS011;59104;44.738;20.612;2022-08-21T13:35:24;8.70;;;4.63;;
71312;SDS011;59104;44.738;20.612;2022-08-21T13:37:51;8.35;;;4.20;;
71312;SDS011;59104;44.738;20.612;2022-08-21T13:40:23;6.03;;;4.15;;
71312;SDS011;59104;44.738;20.612;2022-08-21T13:42:49;5.72;;;4.00;;
71312;SDS011;59104;44.738;20.612;2022-08-21T13:45:18;6.47;;;4.05;;
71312;SDS011;59104;44.738;20.612;2022-08-21T13:47:44;6.50;;;4.35;;
71312;SDS011;59104;44.738;20.612;2022-08-21T13:50:11;5.75;;;3.80;;
71312;SDS011;59104;44.738;20.612;2022-08-21T13:52:46;6.05;;;3.92;;
71312;SDS011;59104;44.738;20.612;2022-08-21T13:55:13;7.40;;;3.92;;
71312;SDS011;59104;44.738;20.612;2022-08-21T13:57:38;8.35;;;3.47;;
71312;SDS011;59104;44.738;20.612;2022-08-21T14:02:38;5.70;;;3.53;;
71312;SDS011;59104;44.738;20.612;2022-08-21T14:05:03;5.18;;;3.25;;
71312;SDS011;59104;44.738;20.612;2022-08-21T14:07:31;4.80;;;3.53;;
71312;SDS011;59104;44.738;20.612;2022-08-21T14:10:00;5.85;;;3.47;;
71312;SDS011;59104;44.738;20.612;2022-08-21T14:12:27;5.75;;;3.67;;
71312;SDS011;59104;44.738;20.612;2022-08-21T14:14:53;4.18;;;2.95;;
71312;SDS011;59104;44.738;20.612;2022-08-21T14:17:27;4.03;;;2.88;;
71312;SDS011;59104;44.738;20.612;2022-08-21T14:19:53;2.47;;;2.17;;
71312;SDS011;59104;44.738;20.612;2022-08-21T14:27:28;2.53;;;2.00;;
71312;SDS011;59104;44.738;20.612;2022-08-21T14:29:57;2.90;;;1.95;;
71312;SDS011;59104;44.738;20.612;2022-08-21T14:32:22;2.65;;;2.25;;
71312;SDS011;59104;44.738;20.612;2022-08-21T14:34:51;3.58;;;2.42;;
71312;SDS011;59104;44.738;20.612;2022-08-21T14:37:16;2.40;;;2.10;;
71312;SDS011;59104;44.738;20.612;2022-08-21T14:39:42;2.13;;;1.77;;
71312;SDS011;59104;44.738;20.612;2022-08-21T14:42:07;3.30;;;2.03;;
71312;SDS011;59104;44.738;20.612;2022-08-21T14:44:33;3.72;;;1.77;;
71312;SDS011;59104;44.738;20.612;2022-08-21T14:46:58;2.63;;;1.70;;
71312;SDS011;59104;44.738;20.612;2022-08-21T14:49:25;2.75;;;2.25;;
71312;SDS011;59104;44.738;20.612;2022-08-21T14:51:51;3.47;;;2.20;;
71312;SDS011;59104;44.738;20.612;2022-08-21T14:54:22;3.35;;;2.25;;
71312;SDS011;59104;44.738;20.612;2022-08-21T14:56:47;3.05;;;2.53;;
71312;SDS011;59104;44.738;20.612;2022-08-21T14:59:13;3.72;;;2.72;;
71312;SDS011;59104;44.738;20.612;2022-08-21T15:01:39;6.03;;;2.53;;
71312;SDS011;59104;44.738;20.612;2022-08-21T15:04:04;4.40;;;3.17;;
71312;SDS011;59104;44.738;20.612;2022-08-21T15:06:30;3.10;;;2.80;;
71312;SDS011;59104;44.738;20.612;2022-08-21T15:08:57;3.90;;;2.90;;
71312;SDS011;59104;44.738;20.612;2022-08-21T15:11:23;7.07;;;3.53;;
71312;SDS011;59104;44.738;20.612;2022-08-21T15:13:56;4.22;;;3.42;;
71312;SDS011;59104;44.738;20.612;2022-08-21T15:16:22;4.55;;;3.38;;
71312;SDS011;59104;44.738;20.612;2022-08-21T15:18:47;7.07;;;3.95;;
71312;SDS011;59104;44.738;20.612;2022-08-21T15:21:13;6.90;;;4.38;;
71312;SDS011;59104;44.738;20.612;2022-08-21T15:23:38;11.98;;;6.15;;
71312;SDS011;59104;44.738;20.612;2022-08-21T15:26:04;10.73;;;6.60;;
71312;SDS011;59104;44.738;20.612;2022-08-21T15:28:29;11.77;;;6.95;;
71312;SDS011;59104;44.738;20.612;2022-08-21T15:30:55;10.13;;;5.20;;
71312;SDS011;59104;44.738;20.612;2022-08-21T15:33:21;7.72;;;4.75;;
71312;SDS011;59104;44.738;20.612;2022-08-21T15:35:47;8.75;;;5.90;;
71312;SDS011;59104;44.738;20.612;2022-08-21T15:38:13;9.07;;;5.60;;
71312;SDS011;59104;44.738;20.612;2022-08-21T15:40:39;7.57;;;5.18;;
71312;SDS011;59104;44.738;20.612;2022-08-21T15:43:05;8.52;;;5.25;;
71312;SDS011;59104;44.738;20.612;2022-08-21T15:45:32;8.77;;;5.82;;
71312;SDS011;59104;44.738;20.612;2022-08-21T15:47:58;9.68;;;5.70;;
71312;SDS011;59104;44.738;20.612;2022-08-21T15:50:24;9.35;;;5.40;;
71312;SDS011;59104;44.738;20.612;2022-08-21T15:52:51;8.05;;;5.43;;
71312;SDS011;59104;44.738;20.612;2022-08-21T15:55:16;8.30;;;5.15;;